Time;durP1;ratioP1;P1;durP2;ratioP2;P2;SDS_P1;SDS_P2;PMS_P1;PMS_P2;Temp;Humidity;BMP_temperature;BMP_pressure;BME280_temperature;BME280_humidity;BME280_pressure;Samples;Min_cycle;Max_cycle;Signal;HPM_P1;HPM_P2
2022/04/30 00:00:57;;;;;;;10.48;4.88;;;;;;;9.31;62.06;101399.75;5004537;28;20141;-74
2022/04/30 00:03:26;;;;;;;8.43;5.70;;;;;;;9.36;61.61;101398.06;5013106;28;20046;-73
2022/04/30 00:05:51;;;;;;;9.18;5.40;;;;;;;9.32;62.17;101397.13;5014287;28;20038;-73
2022/04/30 00:08:16;;;;;;;9.07;5.32;;;;;;;9.35;62.55;101396.28;5014300;28;20403;-74
2022/04/30 00:10:42;;;;;;;8.65;4.85;;;;;;;9.42;62.05;101403.41;4989439;28;20038;-73
2022/04/30 00:13:12;;;;;;;9.10;5.68;;;;;;;9.46;61.67;101393.78;5011927;28;20104;-74
2022/04/30 00:15:39;;;;;;;9.32;5.93;;;;;;;9.51;61.66;101393.00;5014193;28;20504;-74
2022/04/30 00:18:04;;;;;;;8.55;5.78;;;;;;;9.53;61.05;101391.25;5013995;28;20028;-73
2022/04/30 00:20:32;;;;;;;10.10;4.53;;;;;;;9.55;61.09;101394.78;5014137;28;20515;-73
2022/04/30 00:22:57;;;;;;;7.65;4.88;;;;;;;9.56;60.83;101386.03;5007674;28;20034;-73
2022/04/30 00:25:23;;;;;;;10.88;5.28;;;;;;;9.57;60.65;101376.38;5012357;28;20483;-74
2022/04/30 00:27:49;;;;;;;8.38;5.10;;;;;;;9.53;61.19;101383.34;5013921;28;20655;-73
2022/04/30 00:30:15;;;;;;;7.93;4.65;;;;;;;9.52;61.59;101378.94;5001047;28;20457;-73
2022/04/30 00:32:42;;;;;;;8.82;5.38;;;;;;;9.52;61.14;101380.69;5008781;28;20508;-73
2022/04/30 00:35:08;;;;;;;8.05;4.88;;;;;;;9.50;61.41;101370.13;5013912;28;20036;-73
2022/04/30 00:37:34;;;;;;;8.27;4.28;;;;;;;9.45;61.60;101377.09;5013706;28;20112;-73
2022/04/30 00:39:59;;;;;;;8.35;5.00;;;;;;;9.46;61.42;101373.63;5013838;28;20044;-73
2022/04/30 00:42:25;;;;;;;6.53;4.32;;;;;;;9.46;61.56;101365.72;5007356;28;20045;-74
2022/04/30 00:44:50;;;;;;;6.95;4.53;;;;;;;9.45;61.08;101366.56;5009214;28;20050;-73
2022/04/30 00:47:18;;;;;;;6.72;4.30;;;;;;;9.45;61.16;101358.66;5013510;28;20084;-73
2022/04/30 00:49:44;;;;;;;8.00;4.60;;;;;;;9.41;61.31;101365.66;5012391;28;20507;-73
2022/04/30 00:52:13;;;;;;;8.70;4.47;;;;;;;9.40;61.06;101368.25;5013370;28;20121;-74
2022/04/30 00:54:40;;;;;;;9.02;5.13;;;;;;;9.38;61.50;101364.75;5013453;28;20029;-74
2022/04/30 00:57:09;;;;;;;6.75;4.35;;;;;;;9.39;60.84;101366.50;5013104;28;20042;-74
2022/04/30 00:59:37;;;;;;;6.82;4.53;;;;;;;9.33;61.84;101362.03;5006646;28;20048;-74
2022/04/30 01:02:03;;;;;;;7.20;4.68;;;;;;;9.21;61.82;101354.84;5012283;28;20520;-74
2022/04/30 01:04:47;;;;;;;9.85;4.60;;;;;;;9.13;61.21;101353.00;5007087;28;20052;-73
2022/04/30 01:07:12;;;;;;;9.43;4.82;;;;;;;9.09;62.04;101351.19;5013215;28;20419;-74
2022/04/30 01:09:43;;;;;;;8.40;5.20;;;;;;;9.00;63.46;101351.94;5013160;28;20026;-73
2022/04/30 01:12:10;;;;;;;9.65;5.07;;;;;;;8.89;62.96;101353.56;5009134;28;20026;-73
2022/04/30 01:14:37;;;;;;;9.00;4.95;;;;;;;8.87;62.99;101357.91;5005724;28;20037;-74
2022/04/30 01:17:05;;;;;;;7.53;4.30;;;;;;;8.79;63.09;101357.81;5012977;28;20040;-74
2022/04/30 01:19:33;;;;;;;9.57;5.68;;;;;;;8.65;64.72;101359.34;5013052;28;20041;-73
2022/04/30 01:22:01;;;;;;;9.00;5.32;;;;;;;8.59;64.58;101354.84;5012747;28;20408;-73
2022/04/30 01:24:30;;;;;;;7.38;4.80;;;;;;;8.53;64.43;101354.78;5012742;28;20038;-73
2022/04/30 01:26:57;;;;;;;9.80;4.65;;;;;;;8.49;64.71;101352.97;5012841;28;20050;-74
2022/04/30 01:29:24;;;;;;;8.73;4.28;;;;;;;8.40;65.54;101355.44;5012765;28;20059;-74
2022/04/30 01:37:25;;;;;;;9.40;5.25;;;;;;;8.35;64.95;101353.59;5008987;28;20034;-74
2022/04/30 01:39:59;;;;;;;8.90;4.95;;;;;;;8.28;66.52;101351.75;5012744;28;20131;-74
2022/04/30 01:42:38;;;;;;;7.72;4.78;;;;;;;8.29;65.83;101350.88;5005121;28;20041;-73
2022/04/30 01:45:04;;;;;;;7.03;5.22;;;;;;;8.27;66.32;101352.56;5012373;28;20501;-73
2022/04/30 01:47:33;;;;;;;8.30;5.32;;;;;;;8.20;66.60;101360.34;5012313;28;20077;-73
2022/04/30 01:49:59;;;;;;;8.27;5.53;;;;;;;8.12;67.54;101358.50;5012480;28;20116;-74
2022/04/30 01:52:24;;;;;;;8.70;5.43;;;;;;;8.18;67.37;101357.69;5012173;28;20119;-74
2022/04/30 01:54:50;;;;;;;10.32;6.40;;;;;;;8.21;66.92;101356.88;5012449;28;20040;-74
2022/04/30 01:57:23;;;;;;;10.48;6.15;;;;;;;8.26;66.71;101352.56;5012189;28;20044;-73
2022/04/30 01:59:51;;;;;;;8.98;5.22;;;;;;;8.23;67.06;101355.16;4997002;28;20096;-74
2022/04/30 02:02:17;;;;;;;7.75;4.82;;;;;;;8.23;67.41;101356.03;5010837;28;20124;-74
2022/04/30 02:04:42;;;;;;;6.95;5.00;;;;;;;8.27;67.32;101349.94;5012152;28;20560;-74
2022/04/30 02:07:07;;;;;;;8.02;4.82;;;;;;;8.25;67.50;101351.69;5012131;28;20473;-74
2022/04/30 02:09:33;;;;;;;7.57;5.13;;;;;;;8.20;68.79;101345.47;5012144;28;20113;-74
2022/04/30 02:11:59;;;;;;;8.60;6.18;;;;;;;8.23;67.66;101355.16;5010050;28;20053;-74
2022/04/30 02:14:30;;;;;;;12.63;8.35;;;;;;;8.29;67.99;101348.25;5012246;28;20140;-74
2022/04/30 02:16:57;;;;;;;7.43;5.20;;;;;;;8.26;67.43;101342.94;5011813;28;20038;-74
2022/04/30 02:19:26;;;;;;;9.20;5.30;;;;;;;8.10;68.77;101344.44;5005688;28;20118;-74
2022/04/30 02:21:52;;;;;;;7.63;5.10;;;;;;;8.01;68.71;101339.00;5004804;28;20041;-74
2022/04/30 02:24:17;;;;;;;7.72;5.13;;;;;;;8.08;68.19;101340.00;5011897;28;20030;-73
2022/04/30 02:26:43;;;;;;;9.32;6.03;;;;;;;8.09;69.12;101328.59;5000519;28;20034;-74
2022/04/30 02:29:10;;;;;;;7.90;5.03;;;;;;;8.10;68.88;101333.03;5004803;28;20046;-74
2022/04/30 02:31:35;;;;;;;8.80;5.55;;;;;;;8.13;68.91;101330.44;5011499;28;20424;-74
2022/04/30 02:34:00;;;;;;;9.02;4.75;;;;;;;8.19;68.64;101329.66;5011786;28;20064;-74
2022/04/30 02:36:26;;;;;;;9.00;5.53;;;;;;;8.27;68.51;101321.03;5011628;28;20034;-74
2022/04/30 02:38:59;;;;;;;11.95;6.38;;;;;;;8.32;67.92;101319.34;5011622;28;20044;-74
2022/04/30 02:41:25;;;;;;;15.35;8.55;;;;;;;8.37;67.10;101311.53;5008928;28;20497;-74
2022/04/30 02:43:51;;;;;;;10.98;7.78;;;;;;;8.49;66.30;101313.53;5011610;28;20034;-74
2022/04/30 02:46:18;;;;;;;10.30;7.10;;;;;;;8.61;65.69;101310.16;5007001;28;20084;-74
2022/04/30 02:48:43;;;;;;;8.38;6.63;;;;;;;8.67;65.12;101305.88;5011567;28;20049;-74
2022/04/30 02:51:10;;;;;;;8.00;6.30;;;;;;;8.71;65.08;101304.16;5011549;28;20026;-74
2022/04/30 02:53:39;;;;;;;8.30;5.75;;;;;;;8.66;65.66;101293.56;5010585;28;20377;-74
2022/04/30 02:56:05;;;;;;;8.73;5.57;;;;;;;8.65;65.73;101296.22;5011396;28;20038;-74
2022/04/30 03:01:15;;;;;;;14.20;5.85;;;;;;;8.65;65.25;101288.31;5011480;28;20091;-74
2022/04/30 03:03:51;;;;;;;9.73;6.07;;;;;;;8.64;65.63;101297.94;4997354;28;20505;-74
2022/04/30 03:06:17;;;;;;;10.02;6.78;;;;;;;8.67;65.58;101297.09;5008568;28;20065;-74
2022/04/30 03:08:49;;;;;;;9.13;5.88;;;;;;;8.59;65.91;101299.59;5002151;28;20038;-74
2022/04/30 03:11:14;;;;;;;11.27;5.95;;;;;;;8.47;65.73;101296.81;4995066;28;20256;-74
2022/04/30 03:13:40;;;;;;;11.35;6.22;;;;;;;8.47;66.07;101299.44;5009982;28;20121;-74
2022/04/30 03:21:42;;;;;;;7.90;5.72;;;;;;;8.38;66.35;101302.78;5001419;28;20064;-74
2022/04/30 03:24:18;;;;;;;10.48;5.95;;;;;;;8.34;66.81;101286.06;5003018;28;20118;-74
2022/04/30 03:26:48;;;;;;;15.23;6.65;;;;;;;8.29;66.39;101300.91;5015360;28;20037;-74
2022/04/30 03:29:15;;;;;;;13.10;6.40;;;;;;;8.29;66.16;101287.75;5015115;28;20044;-74
2022/04/30 03:31:41;;;;;;;7.80;5.70;;;;;;;8.26;66.65;101290.34;5014917;28;20080;-74
2022/04/30 03:34:08;;;;;;;8.30;5.85;;;;;;;8.28;66.74;101293.00;5015063;28;20682;-74
2022/04/30 03:36:34;;;;;;;11.20;5.95;;;;;;;8.24;66.99;101284.16;5014855;28;20038;-74
2022/04/30 03:39:00;;;;;;;10.32;6.00;;;;;;;8.27;66.53;101289.47;5014944;28;20053;-74
2022/04/30 03:41:25;;;;;;;12.07;5.90;;;;;;;8.28;66.49;101291.25;5014250;28;20045;-74
2022/04/30 03:43:51;;;;;;;8.70;6.03;;;;;;;8.29;66.70;101285.13;5005805;28;20034;-74
2022/04/30 03:46:17;;;;;;;10.20;5.82;;;;;;;8.34;66.17;101290.47;5014665;28;20038;-74
2022/04/30 03:48:43;;;;;;;10.90;6.93;;;;;;;8.37;66.08;101279.97;5005830;28;20041;-74
2022/04/30 03:51:08;;;;;;;10.82;6.78;;;;;;;8.40;66.12;101289.69;5014663;28;20034;-74
2022/04/30 03:53:34;;;;;;;11.30;6.68;;;;;;;8.42;66.23;101282.72;4993967;28;20512;-74
2022/04/30 03:56:00;;;;;;;10.98;7.32;;;;;;;8.42;66.19;101277.44;5008253;28;20506;-74
2022/04/30 03:58:27;;;;;;;9.23;6.22;;;;;;;8.26;66.83;101286.81;5005480;28;20044;-74
2022/04/30 04:00:53;;;;;;;11.23;6.55;;;;;;;8.17;66.66;101286.66;5014438;28;20041;-74
2022/04/30 04:03:19;;;;;;;9.15;6.80;;;;;;;8.15;66.93;101285.75;5014365;28;20425;-74
2022/04/30 04:05:48;;;;;;;9.50;6.60;;;;;;;8.10;67.00;101293.59;5014312;28;20048;-73
2022/04/30 04:08:14;;;;;;;11.73;7.07;;;;;;;8.01;67.52;101286.41;5012448;28;20057;-74
2022/04/30 04:10:41;;;;;;;9.50;6.40;;;;;;;8.01;67.43;101285.53;5013941;28;20057;-74
2022/04/30 04:18:35;;;;;;;11.02;8.65;;;;;;;8.07;66.90;101297.06;5005815;28;20074;-74
2022/04/30 04:21:00;;;;;;;10.85;7.57;;;;;;;8.11;66.53;101297.97;5013914;28;20127;-75
2022/04/30 04:23:25;;;;;;;10.68;7.28;;;;;;;8.16;67.27;101301.56;5008492;28;20392;-74
2022/04/30 04:26:00;;;;;;;12.30;6.82;;;;;;;8.19;66.76;101300.72;5013987;28;20393;-74
2022/04/30 04:28:27;;;;;;;10.10;6.95;;;;;;;8.21;66.87;101289.38;5007217;28;20091;-74
2022/04/30 04:30:53;;;;;;;11.90;7.82;;;;;;;8.26;67.07;101290.34;5013894;28;20546;-74
2022/04/30 04:33:18;;;;;;;8.15;5.93;;;;;;;8.31;66.82;101286.03;5013786;28;20034;-74
2022/04/30 04:35:43;;;;;;;11.40;7.10;;;;;;;8.41;66.40;101275.66;5003962;28;20026;-73
2022/04/30 04:38:09;;;;;;;12.70;9.50;;;;;;;8.51;65.94;101286.38;5020793;28;20061;-75
2022/04/30 04:40:35;;;;;;;13.80;9.65;;;;;;;8.63;65.69;101280.38;5013139;28;20042;-73
2022/04/30 04:43:00;;;;;;;16.10;10.00;;;;;;;8.74;65.31;101286.66;4993528;28;20049;-73
2022/04/30 04:45:27;;;;;;;14.63;10.13;;;;;;;8.84;64.74;101286.81;5004524;28;20038;-73
2022/04/30 04:47:52;;;;;;;12.50;9.95;;;;;;;8.90;64.56;101284.22;4989650;28;20104;-73
2022/04/30 04:50:18;;;;;;;11.07;8.18;;;;;;;8.96;64.59;101287.84;4990104;28;20026;-74
2022/04/30 04:52:45;;;;;;;11.43;8.35;;;;;;;9.00;64.68;101294.03;5002680;28;20416;-74
2022/04/30 04:55:10;;;;;;;30.33;19.05;;;;;;;9.02;64.76;101292.31;5008038;28;20037;-73
2022/04/30 04:57:37;;;;;;;12.95;10.10;;;;;;;8.99;64.61;101293.16;5010002;28;20030;-73
2022/04/30 05:00:04;;;;;;;14.18;8.90;;;;;;;9.06;64.81;101299.34;5001817;28;20397;-74
2022/04/30 05:02:29;;;;;;;14.07;8.73;;;;;;;9.16;64.56;101295.97;5009336;28;20044;-73
2022/04/30 05:04:54;;;;;;;11.13;8.13;;;;;;;9.25;64.12;101289.03;5011206;28;20030;-73
2022/04/30 05:07:20;;;;;;;10.00;7.15;;;;;;;9.28;63.93;101299.63;5011319;28;20026;-73
2022/04/30 05:09:45;;;;;;;12.85;7.45;;;;;;;9.31;63.89;101290.00;5004119;28;20044;-73
2022/04/30 05:12:11;;;;;;;13.82;8.20;;;;;;;9.37;63.76;101289.19;5007154;28;20041;-73
2022/04/30 05:14:37;;;;;;;11.63;8.18;;;;;;;9.40;63.71;101297.13;5011206;28;20113;-73
2022/04/30 05:17:04;;;;;;;11.25;7.45;;;;;;;9.48;63.71;101298.06;5011421;28;20128;-73
2022/04/30 05:19:30;;;;;;;15.32;8.90;;;;;;;9.57;63.67;101292.03;5004090;28;20038;-74
2022/04/30 05:21:56;;;;;;;10.35;7.50;;;;;;;9.64;63.78;101293.84;5011929;28;20044;-74
2022/04/30 05:24:21;;;;;;;9.98;7.45;;;;;;;9.70;63.05;101293.06;5005542;28;20037;-73
2022/04/30 05:26:49;;;;;;;10.95;8.02;;;;;;;9.76;63.09;101295.72;5008627;28;20050;-73
2022/04/30 05:29:15;;;;;;;11.85;8.00;;;;;;;9.80;63.45;101300.19;5010655;28;20114;-73
2022/04/30 05:31:41;;;;;;;12.27;7.90;;;;;;;9.81;63.43;101304.56;5012991;28;20045;-73
2022/04/30 05:34:06;;;;;;;13.32;7.43;;;;;;;9.91;63.09;101303.78;5012669;28;20045;-73
2022/04/30 05:36:32;;;;;;;12.07;7.55;;;;;;;10.06;62.50;101300.38;5012686;28;20038;-73
2022/04/30 05:38:59;;;;;;;11.48;9.13;;;;;;;10.18;62.75;101303.13;5020226;28;20514;-73
2022/04/30 05:41:24;;;;;;;12.75;9.20;;;;;;;10.27;62.64;101302.28;5008775;28;20497;-73
2022/04/30 05:43:49;;;;;;;17.13;8.35;;;;;;;10.23;63.09;101301.41;5012637;28;20037;-73
2022/04/30 05:46:15;;;;;;;11.35;8.20;;;;;;;10.29;62.62;101298.84;5012393;28;20046;-74
2022/04/30 05:48:40;;;;;;;14.32;8.27;;;;;;;10.31;62.72;101299.72;5002474;28;20049;-73
2022/04/30 05:51:05;;;;;;;12.23;8.43;;;;;;;10.50;62.89;101302.50;5007113;28;20058;-74
2022/04/30 05:53:31;;;;;;;12.73;8.93;;;;;;;10.61;61.61;101307.84;5011146;28;20045;-73
2022/04/30 05:55:56;;;;;;;12.57;8.73;;;;;;;10.66;61.59;101307.03;5012420;28;20036;-73
2022/04/30 05:58:22;;;;;;;14.50;8.98;;;;;;;10.72;62.00;101312.31;4998186;28;20061;-74
2022/04/30 06:00:47;;;;;;;11.60;8.45;;;;;;;10.69;62.09;101309.66;5000215;28;20053;-74
2022/04/30 06:03:12;;;;;;;14.35;9.43;;;;;;;10.64;61.82;101310.53;4997820;28;20109;-75
2022/04/30 06:05:38;;;;;;;14.05;9.05;;;;;;;10.75;61.47;101304.41;5001955;28;20088;-73
2022/04/30 06:08:05;;;;;;;11.70;7.57;;;;;;;10.92;60.93;101301.84;5005374;28;20042;-74
2022/04/30 06:10:30;;;;;;;12.52;8.30;;;;;;;11.13;60.37;101297.53;5007431;28;20038;-74
2022/04/30 06:12:55;;;;;;;13.00;8.90;;;;;;;11.24;59.08;101306.41;4999302;28;20042;-74
2022/04/30 06:15:21;;;;;;;13.52;8.70;;;;;;;11.33;58.98;101311.72;5005924;28;20044;-74
2022/04/30 06:17:46;;;;;;;15.82;9.32;;;;;;;11.25;59.35;101310.81;5001860;28;20523;-74
2022/04/30 06:20:12;;;;;;;13.75;9.10;;;;;;;11.31;59.60;101313.44;5001806;28;20112;-74
2022/04/30 06:22:37;;;;;;;12.32;9.00;;;;;;;11.46;59.08;101312.63;5007283;28;20085;-74
2022/04/30 06:25:03;;;;;;;11.68;9.25;;;;;;;11.49;58.46;101320.56;5000657;28;20449;-74
2022/04/30 06:27:29;;;;;;;19.50;9.82;;;;;;;11.46;58.70;101320.56;5006198;28;20184;-74
2022/04/30 06:29:55;;;;;;;14.27;9.60;;;;;;;11.50;58.02;101314.41;5016238;28;20055;-74
2022/04/30 06:32:20;;;;;;;12.48;8.82;;;;;;;11.69;57.74;101314.47;4997614;28;20059;-74
2022/04/30 06:34:46;;;;;;;13.18;9.77;;;;;;;11.90;56.65;101316.28;4997142;28;20097;-74
2022/04/30 06:37:11;;;;;;;12.82;8.65;;;;;;;11.98;56.42;101312.75;4998957;28;20026;-74
2022/04/30 06:39:36;;;;;;;12.40;8.70;;;;;;;12.11;56.34;101307.47;4998884;28;20034;-74
2022/04/30 06:42:02;;;;;;;13.93;8.95;;;;;;;12.22;56.58;101305.69;4997580;28;20053;-74
2022/04/30 06:44:28;;;;;;;13.10;8.23;;;;;;;12.36;56.33;101313.63;4999267;28;20040;-74
2022/04/30 06:46:54;;;;;;;13.25;8.23;;;;;;;12.53;55.55;101309.19;5006715;28;20117;-74
2022/04/30 06:49:21;;;;;;;10.18;7.97;;;;;;;12.67;54.55;101320.63;4999931;28;20117;-74
2022/04/30 06:51:48;;;;;;;9.50;7.50;;;;;;;12.79;54.09;101314.44;4998448;28;20041;-74
2022/04/30 06:57:20;;;;;;;11.43;7.93;;;;;;;12.96;53.55;101313.47;4991520;28;20034;-74
2022/04/30 06:59:46;;;;;;;10.88;7.80;;;;;;;13.16;53.92;101311.66;4997608;28;20652;-74
2022/04/30 07:02:13;;;;;;;11.00;7.53;;;;;;;13.38;52.42;101305.38;5002193;28;20120;-74
2022/04/30 07:04:41;;;;;;;12.40;7.25;;;;;;;13.50;52.56;101307.09;4998065;28;20038;-74
2022/04/30 07:07:06;;;;;;;11.43;6.93;;;;;;;13.65;52.61;101307.88;5006339;28;20268;-74
2022/04/30 07:09:32;;;;;;;12.30;8.55;;;;;;;13.84;52.54;101306.00;5011309;28;20034;-74
2022/04/30 07:12:04;;;;;;;12.70;9.40;;;;;;;14.05;52.47;101296.97;5008506;28;20473;-74
2022/04/30 07:14:35;;;;;;;11.98;9.10;;;;;;;14.21;52.33;101296.81;5005231;28;20505;-74
2022/04/30 07:17:05;;;;;;;11.23;9.57;;;;;;;14.35;52.17;101301.13;5011341;28;20157;-74
2022/04/30 07:19:30;;;;;;;11.05;8.27;;;;;;;14.40;51.40;101305.50;5011298;28;20493;-74
2022/04/30 07:21:55;;;;;;;11.57;8.18;;;;;;;14.38;50.34;101307.31;5010814;28;20033;-74
2022/04/30 07:24:21;;;;;;;12.73;8.18;;;;;;;14.39;50.82;101309.06;5011421;28;20506;-74
2022/04/30 07:26:46;;;;;;;12.05;6.85;;;;;;;14.52;49.72;101308.94;5011036;28;20499;-74
2022/04/30 07:29:12;;;;;;;12.40;7.93;;;;;;;14.53;49.19;101318.69;5011086;28;20440;-74
2022/04/30 07:31:37;;;;;;;17.13;12.20;;;;;;;14.43;49.91;101307.25;5006366;28;20049;-74
2022/04/30 07:34:04;;;;;;;15.10;9.07;;;;;;;14.53;50.09;101316.03;5007044;28;20500;-74
2022/04/30 07:36:30;;;;;;;12.57;8.43;;;;;;;14.55;50.09;101319.56;4998838;28;20045;-75
2022/04/30 07:38:55;;;;;;;12.43;7.60;;;;;;;14.57;50.55;101321.31;5010508;28;20150;-74
2022/04/30 07:41:21;;;;;;;10.88;7.55;;;;;;;14.52;50.16;101320.44;4996807;28;20898;-75
2022/04/30 07:43:46;;;;;;;9.60;6.80;;;;;;;14.77;49.51;101322.88;4997611;28;20116;-74
2022/04/30 07:46:11;;;;;;;12.35;7.75;;;;;;;14.82;49.20;101318.38;5004876;28;20072;-74
2022/04/30 07:48:36;;;;;;;11.60;7.38;;;;;;;14.90;49.08;101320.06;5003931;28;20034;-74
2022/04/30 07:51:02;;;;;;;15.32;7.25;;;;;;;14.86;48.40;101326.31;5009706;28;20063;-74
2022/04/30 07:53:28;;;;;;;13.70;7.63;;;;;;;14.94;48.57;101328.03;5003838;28;20039;-74
2022/04/30 07:55:54;;;;;;;10.43;7.78;;;;;;;15.11;48.32;101329.56;5003007;28;20105;-74
2022/04/30 07:58:20;;;;;;;9.52;6.85;;;;;;;15.26;48.33;101331.16;5001831;28;20046;-74
2022/04/30 08:00:45;;;;;;;9.18;6.70;;;;;;;15.36;47.52;101336.38;5009036;28;20148;-74
2022/04/30 08:03:11;;;;;;;12.07;7.70;;;;;;;15.24;47.40;101332.06;4992401;28;20060;-74
2022/04/30 08:05:37;;;;;;;11.32;6.70;;;;;;;15.42;48.02;101333.63;5006519;28;20026;-74
2022/04/30 08:08:03;;;;;;;11.27;7.00;;;;;;;15.51;47.59;101330.81;5003038;28;20042;-75
2022/04/30 08:10:29;;;;;;;10.02;6.78;;;;;;;15.62;47.02;101328.91;5008206;28;20047;-75
2022/04/30 08:12:56;;;;;;;13.02;7.50;;;;;;;15.73;46.83;101327.00;5003229;28;20044;-74
2022/04/30 08:15:23;;;;;;;10.73;6.30;;;;;;;15.98;46.26;101326.59;5009585;28;20092;-75
2022/04/30 08:17:48;;;;;;;13.02;6.72;;;;;;;16.13;46.45;101321.03;5005910;28;20038;-74
2022/04/30 08:20:14;;;;;;;12.95;7.05;;;;;;;16.14;45.66;101327.28;5010048;28;20032;-75
2022/04/30 08:22:39;;;;;;;11.10;7.13;;;;;;;16.11;45.16;101328.19;5013808;28;20118;-74
2022/04/30 08:25:05;;;;;;;9.25;6.95;;;;;;;16.30;44.92;101325.22;5013874;28;20084;-74
2022/04/30 08:27:30;;;;;;;11.55;6.93;;;;;;;16.40;44.71;101326.78;5013865;28;20038;-74
2022/04/30 08:29:56;;;;;;;9.13;6.50;;;;;;;16.42;44.55;101327.66;5013919;28;20091;-74
2022/04/30 08:32:25;;;;;;;10.63;7.78;;;;;;;16.47;44.30;101316.91;5013115;28;20394;-74
2022/04/30 08:34:50;;;;;;;12.43;6.72;;;;;;;16.62;44.77;101321.97;5003971;28;20056;-74
2022/04/30 08:37:16;;;;;;;10.82;7.03;;;;;;;16.73;44.58;101316.44;5013651;28;20532;-74
2022/04/30 08:39:41;;;;;;;12.50;7.07;;;;;;;16.90;44.94;101311.69;5004916;28;20480;-74
2022/04/30 08:42:07;;;;;;;13.02;7.13;;;;;;;16.90;44.62;101319.69;5012469;28;20037;-74
2022/04/30 08:44:37;;;;;;;12.38;7.80;;;;;;;16.80;44.48;101310.13;5004071;28;20584;-74
2022/04/30 08:47:03;;;;;;;11.35;7.45;;;;;;;16.79;44.69;101305.69;5013464;28;20029;-74
2022/04/30 08:49:31;;;;;;;11.23;7.40;;;;;;;16.79;44.25;101311.91;5002074;28;20034;-75
2022/04/30 08:51:56;;;;;;;11.07;6.40;;;;;;;17.01;44.57;101306.16;5010765;28;20520;-74
2022/04/30 08:54:21;;;;;;;10.15;6.88;;;;;;;17.23;43.91;101303.91;5013534;28;20066;-74
2022/04/30 08:56:55;;;;;;;13.60;7.70;;;;;;;17.14;42.98;101304.13;5013322;28;20033;-75
2022/04/30 08:59:21;;;;;;;9.98;6.28;;;;;;;17.37;43.50;101311.59;5006568;28;20062;-74
2022/04/30 09:01:48;;;;;;;14.18;7.03;;;;;;;17.53;43.39;101300.56;5013132;28;20058;-74
2022/04/30 09:04:14;;;;;;;10.07;6.57;;;;;;;17.81;42.55;101293.72;5003521;28;20505;-74
2022/04/30 09:06:47;;;;;;;8.07;6.97;;;;;;;17.68;42.49;101295.78;5010077;28;20059;-74
2022/04/30 09:09:24;;;;;;;13.73;6.47;;;;;;;17.80;41.86;101291.97;5006303;28;20038;-75
2022/04/30 09:11:50;;;;;;;10.13;6.95;;;;;;;18.01;41.32;101296.78;5011016;28;20077;-74
2022/04/30 09:14:26;;;;;;;10.80;6.32;;;;;;;18.13;41.04;101291.16;5013154;28;20467;-75
2022/04/30 09:17:23;;;;;;;8.55;6.32;;;;;;;18.48;41.26;101277.78;5007809;28;20073;-74
2022/04/30 09:19:51;;;;;;;12.88;6.75;;;;;;;18.72;40.50;101277.09;4993398;28;20069;-74
2022/04/30 09:22:33;;;;;;;8.93;6.60;;;;;;;18.75;40.12;101278.84;5011521;28;20033;-75
2022/04/30 09:25:01;;;;;;;8.40;6.50;;;;;;;18.73;40.44;101275.28;5012930;28;20096;-75
2022/04/30 09:27:26;;;;;;;9.65;7.18;;;;;;;18.82;40.66;101281.31;5008149;28;20042;-75
2022/04/30 09:29:52;;;;;;;13.32;7.25;;;;;;;18.74;39.18;101285.97;5012928;28;20389;-75
2022/04/30 09:32:20;;;;;;;9.57;6.53;;;;;;;18.79;39.73;101276.03;5012514;28;20034;-74
2022/04/30 09:37:45;;;;;;;9.90;6.63;;;;;;;18.66;38.34;101271.94;5006696;28;20034;-74
2022/04/30 09:40:13;;;;;;;9.13;6.25;;;;;;;18.67;39.69;101272.81;5009326;28;20038;-74
2022/04/30 09:42:40;;;;;;;11.43;7.15;;;;;;;18.71;39.85;101271.81;5007003;28;20124;-74
2022/04/30 09:45:06;;;;;;;10.00;7.32;;;;;;;18.68;40.07;101269.19;5012529;28;20100;-74
2022/04/30 09:47:35;;;;;;;9.82;7.68;;;;;;;18.65;40.30;101272.84;5012427;28;20057;-75
2022/04/30 09:55:30;;;;;;;9.23;7.15;;;;;;;18.91;40.15;101265.91;5008538;28;20029;-75
2022/04/30 09:57:58;;;;;;;13.35;7.40;;;;;;;19.07;40.02;101258.31;5012229;28;20519;-74
2022/04/30 10:00:23;;;;;;;10.98;7.47;;;;;;;19.15;40.62;101264.28;4999685;28;20100;-74
2022/04/30 10:02:57;;;;;;;8.48;7.25;;;;;;;19.25;39.59;101261.28;5011873;28;20038;-75
2022/04/30 10:05:24;;;;;;;10.07;7.85;;;;;;;19.10;39.93;101264.47;5001285;28;20548;-75
2022/04/30 10:07:49;;;;;;;14.52;7.93;;;;;;;19.16;39.97;101263.41;5005691;28;20448;-75
2022/04/30 10:10:41;;;;;;;10.52;7.20;;;;;;;19.44;39.15;101252.69;4999544;28;20124;-75
2022/04/30 10:13:24;;;;;;;9.88;6.78;;;;;;;19.61;38.53;101258.41;5001659;28;20447;-75
2022/04/30 10:15:52;;;;;;;9.57;6.47;;;;;;;20.02;38.29;101250.84;5004140;28;20037;-74
2022/04/30 10:18:19;;;;;;;9.32;6.80;;;;;;;20.08;38.14;101245.25;5004969;28;20439;-75
2022/04/30 10:20:52;;;;;;;10.50;7.45;;;;;;;20.04;38.11;101248.09;5006755;28;20077;-74
2022/04/30 10:23:17;;;;;;;10.00;6.85;;;;;;;20.17;38.01;101248.56;5008196;28;20975;-75
2022/04/30 10:25:44;;;;;;;10.40;6.90;;;;;;;20.24;38.25;101244.75;5006203;28;20033;-75
2022/04/30 10:28:15;;;;;;;9.20;6.63;;;;;;;20.11;38.16;101247.84;5011720;28;20038;-75
2022/04/30 10:30:43;;;;;;;9.10;6.97;;;;;;;20.11;38.28;101249.63;4994622;28;20508;-75
2022/04/30 10:33:09;;;;;;;10.10;7.28;;;;;;;20.07;38.03;101243.53;4993672;28;20113;-75
2022/04/30 10:35:39;;;;;;;9.85;7.03;;;;;;;20.07;37.85;101240.84;5006966;28;20481;-75
2022/04/30 10:38:16;;;;;;;11.40;7.28;;;;;;;20.24;36.91;101236.69;5010694;28;20502;-75
2022/04/30 10:40:46;;;;;;;12.20;7.43;;;;;;;20.34;36.70;101235.44;5003367;28;20076;-75
2022/04/30 10:43:26;;;;;;;9.77;6.45;;;;;;;20.54;36.19;101230.28;4998814;28;20769;-75
2022/04/30 10:45:52;;;;;;;9.30;7.57;;;;;;;20.73;37.02;101227.78;5011481;28;20411;-75
2022/04/30 10:48:19;;;;;;;9.13;6.70;;;;;;;21.02;36.26;101224.00;5011505;28;20038;-75
2022/04/30 10:50:47;;;;;;;9.07;6.97;;;;;;;20.90;35.94;101227.13;5011578;28;20077;-75
2022/04/30 10:53:14;;;;;;;10.40;7.25;;;;;;;20.72;35.40;101225.16;5002374;28;20029;-75
2022/04/30 10:55:39;;;;;;;8.38;6.20;;;;;;;20.89;35.38;101221.84;5002741;28;20038;-75
2022/04/30 10:58:05;;;;;;;12.90;6.90;;;;;;;20.94;34.50;101220.72;5011295;28;20059;-75
2022/04/30 11:00:30;;;;;;;8.30;6.40;;;;;;;20.84;34.65;101216.66;5011248;28;20037;-75
2022/04/30 11:03:09;;;;;;;12.43;6.00;;;;;;;20.87;35.14;101213.84;5011261;28;20504;-76
2022/04/30 11:05:35;;;;;;;12.57;7.18;;;;;;;21.06;34.51;101213.13;5007524;28;20133;-75
2022/04/30 11:08:03;;;;;;;7.50;5.65;;;;;;;21.23;34.49;101205.31;5011214;28;20137;-75
2022/04/30 11:10:30;;;;;;;11.18;6.57;;;;;;;21.41;33.48;101203.72;5008731;28;20489;-75
2022/04/30 11:13:06;;;;;;;10.75;6.15;;;;;;;21.54;33.05;101196.91;5011046;28;20415;-75
2022/04/30 11:15:32;;;;;;;9.82;5.85;;;;;;;21.53;33.60;101192.47;5011419;28;20068;-76
2022/04/30 11:17:59;;;;;;;10.18;6.85;;;;;;;21.51;33.66;101196.16;5011154;28;20069;-75
2022/04/30 11:20:25;;;;;;;8.70;6.30;;;;;;;21.68;33.61;101199.03;4998573;28;20042;-75
2022/04/30 11:22:57;;;;;;;8.63;6.13;;;;;;;21.55;33.78;101189.72;5011038;28;20042;-76
2022/04/30 11:25:32;;;;;;;10.00;6.47;;;;;;;21.72;32.81;101194.38;5009917;28;20519;-75
2022/04/30 11:27:58;;;;;;;10.05;5.88;;;;;;;21.79;32.92;101186.00;5004039;28;20045;-76
2022/04/30 11:30:24;;;;;;;8.75;5.20;;;;;;;21.95;32.18;101188.03;5008457;28;20397;-76
2022/04/30 11:32:49;;;;;;;9.70;6.07;;;;;;;22.12;32.11;101190.88;5008730;28;20084;-76
2022/04/30 11:35:16;;;;;;;7.90;5.97;;;;;;;22.19;31.87;101181.63;5011161;28;20056;-76
2022/04/30 11:37:45;;;;;;;9.30;5.43;;;;;;;22.29;31.62;101180.25;5011100;28;20034;-76
2022/04/30 11:40:12;;;;;;;8.32;6.00;;;;;;;22.21;31.47;101176.19;4991315;28;20516;-76
2022/04/30 11:42:37;;;;;;;7.78;5.82;;;;;;;22.50;30.69;101180.25;5006832;28;20062;-75
2022/04/30 11:45:03;;;;;;;8.60;6.10;;;;;;;22.38;30.75;101178.13;5003631;28;20472;-76
2022/04/30 11:47:29;;;;;;;9.57;6.57;;;;;;;22.17;30.40;101172.72;5014681;28;20040;-75
2022/04/30 11:50:09;;;;;;;9.45;6.10;;;;;;;21.81;30.70;101178.75;5010424;28;20042;-75
2022/04/30 11:52:35;;;;;;;10.93;6.20;;;;;;;21.97;30.10;101173.59;5024891;28;20076;-76
2022/04/30 11:55:02;;;;;;;8.65;5.93;;;;;;;21.94;31.32;101164.81;5005913;28;20685;-76